Machynlleth, United Kingdom
Current Conditions -  °F | °C
As of 5:50 AM on Tuesday 21 Oct 2014 (Local Time) from EGOS Reporting Station
Broken Clouds Broken Clouds  
Wind Chill: 14°   Ceiling: 2200
Heat Index: 14°   Visibility: 6mi
Dew Point: 11°   Wind: 20mph
Humidity: 82%   Direction: 250°WSW
Pressure: 29.41"   Gusts: NA
Location:  52.59°N, 3.85°W
Report Text: EGOS 210450Z AUTO 25017KT 9999 BKN022/// BKN032/// 14/11 Q0996 RERA
Loading
Personal Weather Stations






























Interactive Weather Map
Tropical Storm Tracking
New forecast layout! Learn more

10-Day Weather Forecast

Advertisements
Track Severe Weather on mobile